createdAt,value
2024-02-15T00:01:06.858Z,44.88
2024-02-15T00:03:35.821Z,46.53
2024-02-15T00:06:03.341Z,45.58
2024-02-15T00:08:31.126Z,43.38
2024-02-15T00:10:58.070Z,41.83
2024-02-15T00:13:25.017Z,44.17
2024-02-15T00:15:51.953Z,36.78
2024-02-15T00:18:19.768Z,43.55
2024-02-15T00:20:46.891Z,43.95
2024-02-15T00:23:13.710Z,38.97
2024-02-15T00:25:44.633Z,36.00
2024-02-15T00:28:13.635Z,35.13
2024-02-15T00:30:40.999Z,40.72
2024-02-15T00:33:09.111Z,40.95
2024-02-15T00:35:36.908Z,36.05
2024-02-15T00:38:04.688Z,38.78
2024-02-15T00:40:31.575Z,44.58
2024-02-15T00:42:58.551Z,45.65
2024-02-15T00:45:26.066Z,44.75
2024-02-15T00:47:53.198Z,44.17
2024-02-15T00:50:20.426Z,49.42
2024-02-15T00:52:47.488Z,46.58
2024-02-15T00:55:15.588Z,46.45
2024-02-15T00:57:42.637Z,44.60
2024-02-15T01:00:10.858Z,45.00
2024-02-15T01:02:37.905Z,49.35
2024-02-15T01:05:05.264Z,47.15
2024-02-15T01:07:32.937Z,44.13
2024-02-15T01:10:00.176Z,39.88
2024-02-15T01:12:27.089Z,39.67
2024-02-15T01:14:54.089Z,37.72
2024-02-15T01:17:20.922Z,37.95
2024-02-15T01:19:48.284Z,36.03
2024-02-15T01:22:15.172Z,37.22
2024-02-15T01:24:43.073Z,40.03
2024-02-15T01:27:10.832Z,41.47
2024-02-15T01:29:37.836Z,38.92
2024-02-15T01:32:06.647Z,36.92
2024-02-15T01:34:33.870Z,35.30
2024-02-15T01:37:01.448Z,34.72
2024-02-15T01:39:28.523Z,35.25
2024-02-15T01:41:57.501Z,35.78
2024-02-15T01:44:25.930Z,37.08
2024-02-15T01:46:55.942Z,33.60
2024-02-15T01:49:24.187Z,33.10
2024-02-15T01:51:53.426Z,35.20
2024-02-15T01:54:21.304Z,32.90
2024-02-15T01:56:49.243Z,36.00
2024-02-15T01:59:17.625Z,39.03
2024-02-15T02:01:46.116Z,38.80
2024-02-15T02:04:13.813Z,35.25
2024-02-15T02:06:41.765Z,34.33
2024-02-15T02:09:16.409Z,34.55
2024-02-15T02:11:46.407Z,34.10
2024-02-15T02:14:13.772Z,32.92
2024-02-15T02:16:40.807Z,34.97
2024-02-15T02:19:10.274Z,34.33
2024-02-15T02:21:39.857Z,37.40
2024-02-15T02:24:18.336Z,42.13
2024-02-15T02:26:45.537Z,36.78
2024-02-15T02:29:12.480Z,36.25
2024-02-15T02:31:39.630Z,35.28
2024-02-15T02:34:08.971Z,33.83
2024-02-15T02:36:37.454Z,39.67
2024-02-15T02:39:04.520Z,36.30
2024-02-15T02:41:31.533Z,36.50
2024-02-15T02:43:58.992Z,36.72
2024-02-15T02:46:25.965Z,33.97
2024-02-15T02:48:53.115Z,34.97
2024-02-15T02:51:20.645Z,34.80
2024-02-15T02:53:47.877Z,38.80
2024-02-15T02:56:15.980Z,35.65
2024-02-15T02:58:45.686Z,34.05
2024-02-15T03:01:12.957Z,32.47
2024-02-15T03:03:40.926Z,29.80
2024-02-15T03:08:35.421Z,29.80
2024-02-15T03:11:02.975Z,27.58
2024-02-15T03:13:30.468Z,27.58
2024-02-15T03:15:57.457Z,33.58
2024-02-15T03:18:24.646Z,33.42
2024-02-15T03:20:51.763Z,26.65
2024-02-15T03:23:18.642Z,33.08
2024-02-15T03:25:45.540Z,32.35
2024-02-15T03:28:12.425Z,33.25
2024-02-15T03:30:39.304Z,35.42
2024-02-15T03:33:07.667Z,31.40
2024-02-15T03:35:35.560Z,33.95
2024-02-15T03:38:02.562Z,34.05
2024-02-15T03:40:31.706Z,32.78
2024-02-15T03:42:59.385Z,31.70
2024-02-15T03:45:27.708Z,34.78
2024-02-15T03:47:56.787Z,33.03
2024-02-15T03:50:24.481Z,34.40
2024-02-15T03:52:52.150Z,34.70
2024-02-15T03:55:19.968Z,33.80
2024-02-15T03:57:48.860Z,37.65
2024-02-15T04:00:16.636Z,36.38
2024-02-15T04:02:44.933Z,36.80
2024-02-15T04:05:13.514Z,31.90
2024-02-15T04:07:40.673Z,35.63
2024-02-15T04:10:09.636Z,53.05
2024-02-15T04:12:49.556Z,38.22
2024-02-15T04:15:18.963Z,37.17
2024-02-15T04:17:47.164Z,35.15
2024-02-15T04:20:16.613Z,33.20
2024-02-15T04:22:44.809Z,35.03
2024-02-15T04:25:12.670Z,38.03
2024-02-15T04:27:40.373Z,41.08
2024-02-15T04:30:09.183Z,37.55
2024-02-15T04:32:37.895Z,34.15
2024-02-15T04:35:08.264Z,36.05
2024-02-15T04:37:37.693Z,38.03
2024-02-15T04:40:11.669Z,38.67
2024-02-15T04:42:46.300Z,39.38
2024-02-15T04:45:16.291Z,37.78
2024-02-15T04:47:58.300Z,38.13
2024-02-15T04:50:27.089Z,38.28
2024-02-15T04:52:55.930Z,37.08
2024-02-15T04:55:24.031Z,34.45
2024-02-15T04:57:56.242Z,31.83
2024-02-15T05:00:24.429Z,29.55
2024-02-15T05:02:51.458Z,31.08
2024-02-15T05:05:19.094Z,33.17
2024-02-15T05:07:45.982Z,28.67
2024-02-15T05:10:15.739Z,31.65
2024-02-15T05:12:43.852Z,28.10
2024-02-15T05:15:12.954Z,30.13
2024-02-15T05:17:44.992Z,27.02
2024-02-15T05:20:13.997Z,27.60
2024-02-15T05:22:48.930Z,27.15
2024-02-15T05:25:23.398Z,25.95
2024-02-15T05:27:50.579Z,25.08
2024-02-15T05:30:17.488Z,23.42
2024-02-15T05:32:46.801Z,23.23
2024-02-15T05:35:14.197Z,24.05
2024-02-15T05:37:41.116Z,24.42
2024-02-15T05:40:16.570Z,22.20
2024-02-15T05:42:46.716Z,24.42
2024-02-15T05:45:36.067Z,24.83
2024-02-15T05:48:07.706Z,26.17
2024-02-15T05:50:37.348Z,22.77
2024-02-15T05:53:05.099Z,24.80
2024-02-15T05:55:35.023Z,22.95
2024-02-15T05:58:03.772Z,23.67
2024-02-15T06:00:32.108Z,26.58
2024-02-15T06:02:59.606Z,26.65
2024-02-15T06:05:27.789Z,25.92
2024-02-15T06:07:54.782Z,25.70
2024-02-15T06:10:21.759Z,28.20
2024-02-15T06:12:48.658Z,27.73
2024-02-15T06:15:17.785Z,27.67
2024-02-15T06:17:48.329Z,28.85
2024-02-15T06:20:19.207Z,43.72
2024-02-15T06:22:47.851Z,38.10
2024-02-15T06:25:16.573Z,35.88
2024-02-15T06:27:44.056Z,34.33
2024-02-15T06:30:31.252Z,34.22
2024-02-15T06:33:17.858Z,36.83
2024-02-15T06:36:05.179Z,36.63
2024-02-15T06:38:51.684Z,33.05
2024-02-15T06:41:21.610Z,34.85
2024-02-15T06:43:49.585Z,34.53
2024-02-15T06:46:16.511Z,34.25
2024-02-15T06:48:45.918Z,34.75
2024-02-15T06:51:19.046Z,35.17
2024-02-15T06:53:46.274Z,34.30
2024-02-15T06:56:15.284Z,33.85
2024-02-15T06:58:42.847Z,31.05
2024-02-15T07:01:10.913Z,35.00
2024-02-15T07:03:38.562Z,33.42
2024-02-15T07:06:05.775Z,32.72
2024-02-15T07:08:33.117Z,31.63
2024-02-15T07:10:59.985Z,34.22
2024-02-15T07:13:28.210Z,34.90
2024-02-15T07:15:55.227Z,33.03
2024-02-15T07:18:27.778Z,36.10
2024-02-15T07:21:00.728Z,37.95
2024-02-15T07:23:29.139Z,34.97
2024-02-15T07:25:56.221Z,34.65
2024-02-15T07:28:23.315Z,36.70
2024-02-15T07:30:53.600Z,38.67
2024-02-15T07:33:22.168Z,37.25
2024-02-15T07:35:54.757Z,39.30
2024-02-15T07:38:26.768Z,36.88
2024-02-15T07:40:55.055Z,35.17
2024-02-15T07:43:22.016Z,36.47
2024-02-15T07:45:50.566Z,32.50
2024-02-15T07:48:17.824Z,29.42
2024-02-15T07:50:46.320Z,33.22
2024-02-15T07:53:13.310Z,34.90
2024-02-15T07:55:42.899Z,36.35
2024-02-15T07:58:09.944Z,35.70
2024-02-15T08:00:39.381Z,36.85
2024-02-15T08:03:06.569Z,35.42
2024-02-15T08:05:35.023Z,34.95
2024-02-15T08:08:02.071Z,28.73
2024-02-15T08:10:30.113Z,28.45
2024-02-15T08:12:59.536Z,31.65
2024-02-15T08:15:29.204Z,28.15
2024-02-15T08:17:56.733Z,33.35
2024-02-15T08:20:24.251Z,31.63
2024-02-15T08:22:51.351Z,31.83
2024-02-15T08:25:19.363Z,31.33
2024-02-15T08:27:53.391Z,31.88
2024-02-15T08:30:24.044Z,30.60
2024-02-15T08:32:55.960Z,32.92
2024-02-15T08:35:23.881Z,31.95
2024-02-15T08:37:53.346Z,32.22
2024-02-15T08:40:26.929Z,31.00
2024-02-15T08:42:54.248Z,33.85
2024-02-15T08:45:21.951Z,32.10
2024-02-15T08:47:51.326Z,31.65
2024-02-15T08:50:18.673Z,31.75
2024-02-15T08:52:46.084Z,29.48
2024-02-15T08:55:15.729Z,30.15
2024-02-15T08:57:45.132Z,31.45
2024-02-15T09:00:17.627Z,26.20
2024-02-15T09:02:46.352Z,32.43
2024-02-15T09:05:18.570Z,26.20
2024-02-15T09:07:48.968Z,24.17
2024-02-15T09:10:18.381Z,22.95
2024-02-15T09:12:48.695Z,27.63
2024-02-15T09:15:16.418Z,23.42
2024-02-15T09:17:44.807Z,24.10
2024-02-15T09:20:17.061Z,24.98
2024-02-15T09:22:45.580Z,23.80
2024-02-15T09:25:14.275Z,23.90
2024-02-15T09:27:42.898Z,25.73
2024-02-15T09:30:11.027Z,26.83
2024-02-15T09:32:38.413Z,27.10
2024-02-15T09:35:09.255Z,31.42
2024-02-15T09:37:39.948Z,30.85
2024-02-15T09:40:11.390Z,29.13
2024-02-15T09:42:41.618Z,30.38
2024-02-15T09:45:12.373Z,29.58
2024-02-15T09:47:43.280Z,30.23
2024-02-15T09:50:15.749Z,28.52
2024-02-15T09:52:47.084Z,32.00
2024-02-15T09:55:15.860Z,27.42
2024-02-15T09:57:48.014Z,28.50
2024-02-15T10:00:17.152Z,30.85
2024-02-15T10:02:49.007Z,29.13
2024-02-15T10:05:19.867Z,29.52
2024-02-15T10:07:48.079Z,28.45
2024-02-15T10:10:22.274Z,31.13
2024-02-15T10:15:37.695Z,26.20
2024-02-15T10:18:09.042Z,27.13
2024-02-15T10:20:38.586Z,29.55
2024-02-15T10:23:10.312Z,28.23
2024-02-15T10:25:39.927Z,31.67
2024-02-15T10:28:08.583Z,31.83
2024-02-15T10:30:46.974Z,30.38
2024-02-15T10:33:26.967Z,29.38
2024-02-15T10:36:10.332Z,29.05
2024-02-15T10:38:37.899Z,32.20
2024-02-15T10:41:06.542Z,30.27
2024-02-15T10:43:39.302Z,30.10
2024-02-15T10:46:11.025Z,31.55
2024-02-15T10:48:39.532Z,30.50
2024-02-15T10:51:11.730Z,30.15
2024-02-15T10:53:46.790Z,31.40
2024-02-15T10:56:21.012Z,33.22
2024-02-15T10:58:51.875Z,33.45
2024-02-15T11:01:58.743Z,31.95
2024-02-15T11:04:33.424Z,34.90
2024-02-15T11:07:03.443Z,33.20
2024-02-15T11:09:31.004Z,33.65
2024-02-15T11:11:58.452Z,32.42
2024-02-15T11:14:29.926Z,35.25
2024-02-15T11:16:58.795Z,32.83
2024-02-15T11:19:40.391Z,31.52
2024-02-15T11:22:13.207Z,30.98
2024-02-15T11:24:49.630Z,32.50
2024-02-15T11:27:29.774Z,36.30
2024-02-15T11:29:59.801Z,32.50
2024-02-15T11:32:46.833Z,34.40
2024-02-15T11:35:19.217Z,32.50
2024-02-15T11:37:49.065Z,34.42
2024-02-15T11:40:18.294Z,33.65
2024-02-15T11:42:45.979Z,36.90
2024-02-15T11:45:13.947Z,34.33
2024-02-15T11:47:50.061Z,33.50
2024-02-15T11:50:19.418Z,33.85
2024-02-15T11:52:47.487Z,36.25
2024-02-15T11:55:14.570Z,35.45
2024-02-15T11:57:52.087Z,36.75
2024-02-15T12:00:44.644Z,38.17
2024-02-15T12:03:33.151Z,37.83
2024-02-15T12:06:20.221Z,36.45
2024-02-15T12:09:07.016Z,36.88
2024-02-15T12:11:53.956Z,36.63
2024-02-15T12:14:39.747Z,36.90
2024-02-15T12:17:27.597Z,35.80
2024-02-15T12:19:56.942Z,35.50
2024-02-15T12:22:28.654Z,38.50
2024-02-15T12:24:59.794Z,36.38
2024-02-15T12:27:28.395Z,34.75
2024-02-15T12:29:59.048Z,35.95
2024-02-15T12:32:28.164Z,37.22
2024-02-15T12:35:23.939Z,35.17
2024-02-15T12:38:06.535Z,35.03
2024-02-15T12:40:41.289Z,36.35
2024-02-15T12:43:11.013Z,37.90
2024-02-15T12:45:39.868Z,37.42
2024-02-15T12:48:08.416Z,36.65
2024-02-15T12:50:36.252Z,35.72
2024-02-15T12:53:04.262Z,37.40
2024-02-15T12:55:35.611Z,35.33
2024-02-15T12:58:05.267Z,38.47
2024-02-15T13:00:34.964Z,36.65
2024-02-15T13:03:05.144Z,36.28
2024-02-15T13:05:33.563Z,37.03
2024-02-15T13:08:02.472Z,36.90
2024-02-15T13:10:30.863Z,37.60
2024-02-15T13:12:58.778Z,38.67
2024-02-15T13:15:34.802Z,35.38
2024-02-15T13:18:05.835Z,38.20
2024-02-15T13:20:35.454Z,36.60
2024-02-15T13:23:15.985Z,35.40
2024-02-15T13:25:44.967Z,35.67
2024-02-15T13:28:14.626Z,35.80
2024-02-15T13:30:44.961Z,36.78
2024-02-15T13:33:18.066Z,36.47
2024-02-15T13:35:45.651Z,37.58
2024-02-15T13:38:16.605Z,39.58
2024-02-15T13:40:45.792Z,37.63
2024-02-15T13:43:13.223Z,37.53
2024-02-15T13:45:42.595Z,39.75
2024-02-15T13:48:11.035Z,36.95
2024-02-15T13:50:40.456Z,38.92
2024-02-15T13:53:08.033Z,39.80
2024-02-15T13:55:37.424Z,37.00
2024-02-15T13:58:04.530Z,42.67
2024-02-15T14:00:35.451Z,39.33
2024-02-15T14:03:04.457Z,36.83
2024-02-15T14:05:32.017Z,38.75
2024-02-15T14:08:02.879Z,38.15
2024-02-15T14:10:32.236Z,37.30
2024-02-15T14:12:59.742Z,36.45
2024-02-15T14:15:27.189Z,37.17
2024-02-15T14:17:56.874Z,37.20
2024-02-15T14:20:24.517Z,38.60
2024-02-15T14:22:58.676Z,36.42
2024-02-15T14:25:27.226Z,38.40
2024-02-15T14:27:58.513Z,38.22
2024-02-15T14:30:45.484Z,37.00
2024-02-15T14:33:22.003Z,35.58
2024-02-15T14:35:51.626Z,37.67
2024-02-15T14:38:20.691Z,39.92
2024-02-15T14:40:57.266Z,38.33
2024-02-15T14:43:28.074Z,41.33
2024-02-15T14:45:58.043Z,38.35
2024-02-15T14:48:26.388Z,36.83
2024-02-15T14:50:57.356Z,39.70
2024-02-15T14:53:25.335Z,41.55
2024-02-15T14:55:53.095Z,39.65
2024-02-15T14:58:23.394Z,39.20
2024-02-15T15:00:51.035Z,40.25
2024-02-15T15:03:18.626Z,40.45
2024-02-15T15:06:05.356Z,39.95
2024-02-15T15:08:52.592Z,38.60
2024-02-15T15:11:38.463Z,37.40
2024-02-15T15:14:07.273Z,40.95
2024-02-15T15:16:35.301Z,43.03
2024-02-15T15:19:03.630Z,42.20
2024-02-15T15:21:30.720Z,42.60
2024-02-15T15:23:58.085Z,42.63
2024-02-15T15:26:25.549Z,41.05
2024-02-15T15:28:52.633Z,38.75
2024-02-15T15:31:22.589Z,41.70
2024-02-15T15:33:54.096Z,43.90
2024-02-15T15:36:23.178Z,39.38
2024-02-15T15:38:51.760Z,40.95
2024-02-15T15:41:19.678Z,61.15
2024-02-15T15:43:47.378Z,61.85
2024-02-15T15:46:17.326Z,52.22
2024-02-15T15:48:47.279Z,40.88
2024-02-15T15:51:15.938Z,44.33
2024-02-15T15:53:46.369Z,42.88
2024-02-15T15:56:17.955Z,43.60
2024-02-15T15:58:46.698Z,43.00
2024-02-15T16:01:14.916Z,42.67
2024-02-15T16:03:42.563Z,43.47
2024-02-15T16:06:09.794Z,44.10
2024-02-15T16:08:37.339Z,40.25
2024-02-15T16:11:07.858Z,44.03
2024-02-15T16:13:35.964Z,44.15
2024-02-15T16:16:05.225Z,43.00
2024-02-15T16:18:32.700Z,43.40
2024-02-15T16:20:59.868Z,41.45
2024-02-15T16:23:26.866Z,43.90
2024-02-15T16:25:53.952Z,43.83
2024-02-15T16:28:21.686Z,41.90
2024-02-15T16:30:49.724Z,44.50
2024-02-15T16:33:17.370Z,45.35
2024-02-15T16:35:44.806Z,39.95
2024-02-15T16:38:11.866Z,45.20
2024-02-15T16:40:38.894Z,41.10
2024-02-15T16:43:06.189Z,45.42
2024-02-15T16:45:34.728Z,44.85
2024-02-15T16:48:05.343Z,46.72
2024-02-15T16:50:32.877Z,47.63
2024-02-15T16:53:00.866Z,44.35
2024-02-15T16:55:33.056Z,47.80
2024-02-15T16:58:05.018Z,47.25
2024-02-15T17:00:33.606Z,47.20
2024-02-15T17:03:01.006Z,43.20
2024-02-15T17:05:29.599Z,46.70
2024-02-15T17:08:01.147Z,46.67
2024-02-15T17:10:29.608Z,49.85
2024-02-15T17:12:56.619Z,51.47
2024-02-15T17:15:27.359Z,48.13
2024-02-15T17:17:55.623Z,51.58
2024-02-15T17:20:24.610Z,45.60
2024-02-15T17:22:53.818Z,51.90
2024-02-15T17:25:25.632Z,51.95
2024-02-15T17:27:56.938Z,60.00
2024-02-15T17:30:24.959Z,61.72
2024-02-15T17:32:52.224Z,59.33
2024-02-15T17:35:20.521Z,68.45
2024-02-15T17:37:47.508Z,79.88
2024-02-15T17:40:15.180Z,79.63
2024-02-15T17:42:43.872Z,76.95
2024-02-15T17:45:13.044Z,65.93
2024-02-15T17:47:41.583Z,65.10
2024-02-15T17:50:11.634Z,67.85
2024-02-15T17:52:38.806Z,71.68
2024-02-15T17:55:10.140Z,76.38
2024-02-15T17:57:40.635Z,78.68
2024-02-15T18:00:17.987Z,76.60
2024-02-15T18:02:50.014Z,79.30
2024-02-15T18:05:20.339Z,84.38
2024-02-15T18:07:48.346Z,79.20
2024-02-15T18:10:18.267Z,67.03
2024-02-15T18:12:45.194Z,67.88
2024-02-15T18:15:19.957Z,73.07
2024-02-15T18:17:47.963Z,68.30
2024-02-15T18:20:16.665Z,64.72
2024-02-15T18:22:45.530Z,61.90
2024-02-15T18:25:12.556Z,62.20
2024-02-15T18:27:39.879Z,61.58
2024-02-15T18:30:14.185Z,62.83
2024-02-15T18:32:41.911Z,62.72
2024-02-15T18:35:13.935Z,65.72
2024-02-15T18:37:42.540Z,66.97
2024-02-15T18:40:17.865Z,64.30
2024-02-15T18:42:51.618Z,65.57
2024-02-15T18:45:19.404Z,70.18
2024-02-15T18:47:46.938Z,68.45
2024-02-15T18:50:14.269Z,69.00
2024-02-15T18:52:42.198Z,76.53
2024-02-15T18:55:11.841Z,74.75
2024-02-15T18:57:39.060Z,77.07
2024-02-15T19:00:20.668Z,73.95
2024-02-15T19:02:58.438Z,63.63
2024-02-15T19:05:26.662Z,67.88
2024-02-15T19:07:54.658Z,77.47
2024-02-15T19:10:22.992Z,82.93
2024-02-15T19:12:53.508Z,106.32
2024-02-15T19:15:21.201Z,95.60
2024-02-15T19:17:48.613Z,86.95
2024-02-15T19:20:17.040Z,70.13
2024-02-15T19:22:44.206Z,77.03
2024-02-15T19:25:19.132Z,81.97
2024-02-15T19:27:46.978Z,79.10
2024-02-15T19:30:14.544Z,77.13
2024-02-15T19:32:42.348Z,82.55
2024-02-15T19:35:09.678Z,100.00
2024-02-15T19:37:36.861Z,77.85
2024-02-15T19:40:08.750Z,77.45
2024-02-15T19:42:36.877Z,83.00
2024-02-15T19:45:04.348Z,77.07
2024-02-15T19:47:32.492Z,79.20
2024-02-15T19:49:59.542Z,75.32
2024-02-15T19:52:26.894Z,78.35
2024-02-15T19:54:53.944Z,77.43
2024-02-15T19:57:21.326Z,77.22
2024-02-15T19:59:49.747Z,79.75
2024-02-15T20:02:17.643Z,74.72
2024-02-15T20:04:46.265Z,70.18
2024-02-15T20:07:13.506Z,67.78
2024-02-15T20:09:47.036Z,65.28
2024-02-15T20:12:15.795Z,74.05
2024-02-15T20:14:43.515Z,70.03
2024-02-15T20:17:11.895Z,72.45
2024-02-15T20:19:39.950Z,72.25
2024-02-15T20:22:10.394Z,67.00
2024-02-15T20:24:40.420Z,68.53
2024-02-15T20:27:07.557Z,66.85
2024-02-15T20:29:36.770Z,69.00
2024-02-15T20:32:05.867Z,61.22
2024-02-15T20:34:36.924Z,65.47
2024-02-15T20:37:05.465Z,59.10
2024-02-15T20:39:36.589Z,58.83
2024-02-15T20:42:04.196Z,72.30
2024-02-15T20:44:31.509Z,77.65
2024-02-15T20:46:58.568Z,63.60
2024-02-15T20:49:26.305Z,66.72
2024-02-15T20:51:53.302Z,62.97
2024-02-15T20:54:22.199Z,65.70
2024-02-15T20:56:50.781Z,63.05
2024-02-15T20:59:18.763Z,62.08
2024-02-15T21:01:45.766Z,60.20
2024-02-15T21:04:13.737Z,64.88
2024-02-15T21:06:41.397Z,64.65
2024-02-15T21:09:15.372Z,66.57
2024-02-15T21:11:46.658Z,64.30
2024-02-15T21:14:16.562Z,63.33
2024-02-15T21:16:44.140Z,65.18
2024-02-15T21:19:12.228Z,63.45
2024-02-15T21:21:45.372Z,61.70
2024-02-15T21:24:12.953Z,72.82
2024-02-15T21:26:44.079Z,77.05
2024-02-15T21:29:13.530Z,79.85
2024-02-15T21:31:40.510Z,65.70
2024-02-15T21:34:10.463Z,62.30
2024-02-15T21:36:37.737Z,62.33
2024-02-15T21:39:06.559Z,60.03
2024-02-15T21:41:35.968Z,61.35
2024-02-15T21:44:03.348Z,58.70
2024-02-15T21:46:30.422Z,63.10
2024-02-15T21:48:57.596Z,59.53
2024-02-15T21:51:24.901Z,56.08
2024-02-15T21:53:52.241Z,58.22
2024-02-15T21:56:20.264Z,59.70
2024-02-15T21:58:48.459Z,61.63
2024-02-15T22:01:16.692Z,59.90
2024-02-15T22:03:44.040Z,61.80
2024-02-15T22:06:12.637Z,71.55
2024-02-15T22:08:42.505Z,71.65
2024-02-15T22:11:11.919Z,62.17
2024-02-15T22:13:39.549Z,63.60
2024-02-15T22:16:08.902Z,64.38
2024-02-15T22:18:36.197Z,60.97
2024-02-15T22:21:04.377Z,62.55
2024-02-15T22:23:32.108Z,60.55
2024-02-15T22:25:59.176Z,63.65
2024-02-15T22:28:26.121Z,61.08
2024-02-15T22:30:53.019Z,60.95
2024-02-15T22:33:22.671Z,61.17
2024-02-15T22:35:50.382Z,55.47
2024-02-15T22:38:17.480Z,53.78
2024-02-15T22:40:44.482Z,57.83
2024-02-15T22:43:14.485Z,57.75
2024-02-15T22:45:42.235Z,56.35
2024-02-15T22:48:09.394Z,53.35
2024-02-15T22:50:37.614Z,56.83
2024-02-15T22:53:04.639Z,58.08
2024-02-15T22:55:31.563Z,56.97
2024-02-15T22:57:59.174Z,55.88
2024-02-15T23:00:27.791Z,54.10
2024-02-15T23:02:55.307Z,53.28
2024-02-15T23:05:23.678Z,55.35
2024-02-15T23:07:51.744Z,53.13
2024-02-15T23:10:19.054Z,51.38
2024-02-15T23:12:46.131Z,48.17
2024-02-15T23:15:16.431Z,56.63
2024-02-15T23:17:43.736Z,54.05
2024-02-15T23:20:13.265Z,50.63
2024-02-15T23:22:43.267Z,50.78
2024-02-15T23:25:10.501Z,51.90
2024-02-15T23:27:37.587Z,52.75
2024-02-15T23:30:06.034Z,56.55
2024-02-15T23:32:36.206Z,58.90
2024-02-15T23:35:04.653Z,62.13
2024-02-15T23:37:51.813Z,61.10
2024-02-15T23:40:25.778Z,58.47
2024-02-15T23:42:54.293Z,60.10
2024-02-15T23:45:21.994Z,59.70
2024-02-15T23:47:49.364Z,65.35
2024-02-15T23:50:17.314Z,61.72
2024-02-15T23:52:46.931Z,55.67
2024-02-15T23:55:15.459Z,67.72
2024-02-15T23:57:47.275Z,68.18
